Azalea Ace — A8ZJ6 — position and weather

sailwx.info

Track history (hours):
 
Tides and Currents Weather Stations Pressure Air Temp Water Temp Dewpoint Dewpoint Depression Visibility Wind Speed Wind Dir Waves Ship Positions

Azalea Ace

Last reported at 2014-Oct-31 17:13 UTC. Time now 2014-Oct-31 21:35 UTC.
Position N 34°60' E 139°40'.

Length 180 m; draft 8.4 m.

Type: Ship. MMSI: 636015228.

Date/timePositionNaut miles runAvg speedWind from/ knotsBaromVisibWave heightAir tempDewpointWater temp
2014-Oct-31 17:13N 34°60' E 139°40'913.6
2014-Oct-31 16:33N 35°08' E 139°45'1212.0
2014-Oct-31 15:33N 35°20' E 139°43'6 5.7
2014-Oct-31 14:32N 35°25' E 139°41'0 0.0
2014-Oct-31 13:32N 35°25' E 139°41'0 0.0
2014-Oct-31 12:32N 35°25' E 139°41'0 0.0
2014-Oct-31 11:32N 35°25' E 139°41'0 0.0
2014-Oct-31 10:32N 35°25' E 139°41'1 1.3
2014-Oct-31 09:33N 35°25' E 139°42'5 5.0
2014-Oct-31 08:33N 35°21' E 139°41'3 2.6
2014-Oct-31 07:31N 35°19' E 139°39'0 0.0
2014-Oct-31 06:25N 35°19' E 139°39'0 0.0
2014-Oct-31 05:25N 35°19' E 139°39'0 0.0
2014-Oct-31 04:28N 35°19' E 139°39'0 0.0
2014-Oct-31 03:28N 35°19' E 139°39'0 0.0
2014-Oct-31 02:31N 35°19' E 139°39'0 0.0
2014-Oct-31 01:10N 35°19' E 139°39'0 0.0
2014-Oct-31 00:31N 35°19' E 139°39'0 0.0
2014-Oct-30 23:28N 35°19' E 139°39'0 0.0
2014-Oct-30 22:34N 35°19' E 139°39'4 4.2
2014-Oct-30 21:34N 35°22' E 139°42'6 6.3
2014-Oct-30 20:34N 35°28' E 139°41'0 0.0
2014-Oct-30 19:30N 35°28' E 139°41'0 0.0
2014-Oct-30 18:33N 35°28' E 139°41'0 0.0
2014-Oct-30 17:33N 35°28' E 139°41'0 0.0
2014-Oct-30 16:33N 35°28' E 139°41'0 0.0
2014-Oct-30 15:33N 35°28' E 139°41'0 0.0
2014-Oct-30 14:33N 35°28' E 139°41'0 0.0
2014-Oct-30 13:33N 35°28' E 139°41'0 0.0
2014-Oct-30 12:33N 35°28' E 139°41'0 0.0
2014-Oct-30 11:33N 35°28' E 139°41'0 0.0
2014-Oct-30 10:30N 35°28' E 139°41'0 0.0
2014-Oct-30 09:33N 35°28' E 139°41'0 0.0
2014-Oct-30 08:33N 35°28' E 139°41'0 0.0
2014-Oct-30 07:33N 35°28' E 139°41'0 0.0
2014-Oct-30 06:33N 35°28' E 139°41'0 0.0
2014-Oct-30 05:30N 35°28' E 139°41'0 0.0
2014-Oct-30 04:30N 35°28' E 139°41'0 0.0
2014-Oct-30 03:33N 35°28' E 139°41'0 0.0
2014-Oct-30 02:33N 35°28' E 139°41'0 0.0
2014-Oct-30 01:33N 35°28' E 139°41'0 0.0
2014-Oct-30 00:33N 35°28' E 139°41'0 0.0
2014-Oct-29 23:33N 35°28' E 139°41'0 0.4
2014-Oct-29 22:33N 35°28' E 139°41'6 5.9
2014-Oct-29 21:33N 35°24' E 139°46'1111.5
2014-Oct-29 20:33N 35°13' E 139°47'1110.9
2014-Oct-29 19:33N 35°02' E 139°42'  
2014-Oct-24 13:24N 34°02' E 130°50'  
Track history (hours):
 
Tides and Currents Weather Stations Pressure Air Temp Water Temp Dewpoint Dewpoint Depression Visibility Wind Speed Wind Dir Waves Ship Positions

Azalea Ace

Last reported at 2014-Oct-31 17:13 UTC. Time now 2014-Oct-31 21:35 UTC.
Position N 34°60' E 139°40'.

Length 180 m; draft 8.4 m.

Type: Ship. MMSI: 636015228.

Date/timePositionNaut miles runAvg speedWind from/ knotsBaromVisibWave heightAir tempDewpointWater temp
2014-Oct-31 17:13N 34°60' E 139°40'913.6
2014-Oct-31 16:33N 35°08' E 139°45'1212.0
2014-Oct-31 15:33N 35°20' E 139°43'6 5.7
2014-Oct-31 14:32N 35°25' E 139°41'0 0.0
2014-Oct-31 13:32N 35°25' E 139°41'0 0.0
2014-Oct-31 12:32N 35°25' E 139°41'0 0.0
2014-Oct-31 11:32N 35°25' E 139°41'0 0.0
2014-Oct-31 10:32N 35°25' E 139°41'1 1.3
2014-Oct-31 09:33N 35°25' E 139°42'5 5.0
2014-Oct-31 08:33N 35°21' E 139°41'3 2.6
2014-Oct-31 07:31N 35°19' E 139°39'0 0.0
2014-Oct-31 06:25N 35°19' E 139°39'0 0.0
2014-Oct-31 05:25N 35°19' E 139°39'0 0.0
2014-Oct-31 04:28N 35°19' E 139°39'0 0.0
2014-Oct-31 03:28N 35°19' E 139°39'0 0.0
2014-Oct-31 02:31N 35°19' E 139°39'0 0.0
2014-Oct-31 01:10N 35°19' E 139°39'0 0.0
2014-Oct-31 00:31N 35°19' E 139°39'0 0.0
2014-Oct-30 23:28N 35°19' E 139°39'0 0.0
2014-Oct-30 22:34N 35°19' E 139°39'4 4.2
2014-Oct-30 21:34N 35°22' E 139°42'6 6.3
2014-Oct-30 20:34N 35°28' E 139°41'0 0.0
2014-Oct-30 19:30N 35°28' E 139°41'0 0.0
2014-Oct-30 18:33N 35°28' E 139°41'0 0.0
2014-Oct-30 17:33N 35°28' E 139°41'0 0.0
2014-Oct-30 16:33N 35°28' E 139°41'0 0.0
2014-Oct-30 15:33N 35°28' E 139°41'0 0.0
2014-Oct-30 14:33N 35°28' E 139°41'0 0.0
2014-Oct-30 13:33N 35°28' E 139°41'0 0.0
2014-Oct-30 12:33N 35°28' E 139°41'0 0.0
2014-Oct-30 11:33N 35°28' E 139°41'0 0.0
2014-Oct-30 10:30N 35°28' E 139°41'0 0.0
2014-Oct-30 09:33N 35°28' E 139°41'0 0.0
2014-Oct-30 08:33N 35°28' E 139°41'0 0.0
2014-Oct-30 07:33N 35°28' E 139°41'0 0.0
2014-Oct-30 06:33N 35°28' E 139°41'0 0.0
2014-Oct-30 05:30N 35°28' E 139°41'0 0.0
2014-Oct-30 04:30N 35°28' E 139°41'0 0.0
2014-Oct-30 03:33N 35°28' E 139°41'0 0.0
2014-Oct-30 02:33N 35°28' E 139°41'0 0.0
2014-Oct-30 01:33N 35°28' E 139°41'0 0.0
2014-Oct-30 00:33N 35°28' E 139°41'0 0.0
2014-Oct-29 23:33N 35°28' E 139°41'0 0.4
2014-Oct-29 22:33N 35°28' E 139°41'6 5.9
2014-Oct-29 21:33N 35°24' E 139°46'1111.5
2014-Oct-29 20:33N 35°13' E 139°47'1110.9
2014-Oct-29 19:33N 35°02' E 139°42'  
2014-Oct-24 13:24N 34°02' E 130°50'  

Dump ship's entire track history